createdAt,value
2022-08-26T00:00:15.986Z,4.10
2022-08-26T00:03:08.427Z,3.90
2022-08-26T00:05:41.912Z,4.50
2022-08-26T00:08:15.927Z,4.20
2022-08-26T00:10:48.391Z,3.90
2022-08-26T00:13:22.103Z,18.30
2022-08-26T00:15:54.261Z,5.90
2022-08-26T00:18:26.538Z,4.80
2022-08-26T00:20:58.667Z,4.80
2022-08-26T00:23:31.262Z,4.20
2022-08-26T00:26:05.281Z,4.30
2022-08-26T00:28:40.607Z,4.40
2022-08-26T00:31:12.855Z,4.20
2022-08-26T00:33:45.384Z,4.00
2022-08-26T00:36:20.262Z,3.60
2022-08-26T00:38:53.030Z,4.10
2022-08-26T00:41:25.155Z,3.70
2022-08-26T00:43:57.972Z,3.90
2022-08-26T00:46:35.305Z,4.20
2022-08-26T00:49:13.648Z,4.10
2022-08-26T00:51:50.027Z,3.90
2022-08-26T00:54:26.896Z,4.00
2022-08-26T00:57:02.629Z,4.40
2022-08-26T00:59:38.838Z,4.50
2022-08-26T01:02:21.236Z,4.20
2022-08-26T01:04:56.487Z,3.70
2022-08-26T01:07:31.448Z,3.90
2022-08-26T01:10:07.792Z,3.70
2022-08-26T01:12:44.095Z,4.00
2022-08-26T01:15:20.908Z,3.00
2022-08-26T01:20:35.365Z,3.70
2022-08-26T01:23:10.022Z,3.90
2022-08-26T01:25:45.415Z,3.40
2022-08-26T01:28:22.849Z,3.80
2022-08-26T01:30:57.984Z,3.40
2022-08-26T01:33:42.176Z,3.70
2022-08-26T01:36:16.379Z,3.50
2022-08-26T01:38:48.632Z,3.70
2022-08-26T01:41:27.492Z,3.70
2022-08-26T01:44:03.052Z,3.80
2022-08-26T01:46:36.214Z,3.80
2022-08-26T01:49:11.477Z,4.20
2022-08-26T01:51:44.563Z,3.50
2022-08-26T01:54:17.171Z,3.40
2022-08-26T01:56:53.974Z,4.10
2022-08-26T01:59:26.621Z,3.50
2022-08-26T02:01:59.417Z,3.40
2022-08-26T02:04:35.968Z,4.30
2022-08-26T02:07:10.529Z,3.90
2022-08-26T02:09:44.267Z,3.60
2022-08-26T02:12:19.547Z,3.80
2022-08-26T02:14:55.133Z,3.80
2022-08-26T02:17:41.279Z,3.70
2022-08-26T02:20:17.034Z,3.60
2022-08-26T02:22:50.026Z,3.90
2022-08-26T02:25:27.202Z,3.50
2022-08-26T02:27:59.662Z,4.10
2022-08-26T02:30:34.811Z,3.70
2022-08-26T02:33:08.538Z,3.70
2022-08-26T02:35:41.860Z,3.30
2022-08-26T02:38:14.117Z,3.70
2022-08-26T02:40:46.161Z,3.90
2022-08-26T02:43:31.471Z,4.00
2022-08-26T02:46:04.955Z,3.70
2022-08-26T02:48:37.607Z,4.10
2022-08-26T02:51:09.847Z,3.90
2022-08-26T02:53:42.331Z,4.10
2022-08-26T02:56:14.804Z,3.90
2022-08-26T02:58:47.680Z,3.90
2022-08-26T03:01:35.228Z,3.60
2022-08-26T03:04:12.379Z,3.70
2022-08-26T03:06:52.636Z,4.20
2022-08-26T03:09:25.899Z,4.10
2022-08-26T03:11:58.279Z,3.90
2022-08-26T03:14:30.635Z,4.00
2022-08-26T03:17:02.760Z,3.90
2022-08-26T03:19:36.099Z,3.60
2022-08-26T03:22:08.743Z,3.60
2022-08-26T03:24:41.009Z,3.70
2022-08-26T03:27:19.122Z,4.40
2022-08-26T03:30:08.663Z,4.10
2022-08-26T03:32:44.629Z,4.30
2022-08-26T03:35:16.649Z,4.20
2022-08-26T03:37:48.725Z,4.00
2022-08-26T03:40:22.359Z,3.60
2022-08-26T03:42:55.002Z,3.50
2022-08-26T03:45:27.492Z,4.10
2022-08-26T03:47:59.885Z,4.10
2022-08-26T03:50:34.299Z,4.40
2022-08-26T03:53:12.807Z,6.40
2022-08-26T03:55:45.984Z,4.40
2022-08-26T03:58:18.653Z,4.70
2022-08-26T04:00:55.580Z,4.60
2022-08-26T04:03:45.550Z,4.50
2022-08-26T04:06:18.195Z,4.30
2022-08-26T04:08:50.332Z,4.60
2022-08-26T04:11:24.818Z,5.00
2022-08-26T04:13:57.439Z,5.60
2022-08-26T04:16:32.746Z,5.90
2022-08-26T04:19:05.424Z,5.50
2022-08-26T04:21:38.586Z,5.40
2022-08-26T04:24:12.505Z,5.80
2022-08-26T04:26:46.244Z,6.60
2022-08-26T04:29:21.540Z,5.80
2022-08-26T04:31:56.220Z,5.90
2022-08-26T04:34:30.331Z,5.70
2022-08-26T04:37:02.667Z,6.30
2022-08-26T04:39:35.802Z,6.00
2022-08-26T04:42:08.931Z,6.40
2022-08-26T04:44:41.242Z,7.00
2022-08-26T04:47:13.639Z,6.80
2022-08-26T04:49:45.713Z,6.40
2022-08-26T04:52:18.102Z,7.00
2022-08-26T04:54:50.172Z,6.70
2022-08-26T04:57:23.466Z,7.40
2022-08-26T04:59:56.187Z,6.70
2022-08-26T05:02:28.757Z,6.50
2022-08-26T05:05:00.943Z,7.10
2022-08-26T05:07:33.138Z,6.30
2022-08-26T05:10:08.742Z,7.10
2022-08-26T05:12:41.076Z,6.50
2022-08-26T05:15:16.520Z,6.50
2022-08-26T05:17:51.071Z,7.50
2022-08-26T05:20:26.061Z,6.60
2022-08-26T05:23:00.688Z,6.00
2022-08-26T05:25:33.718Z,13.30
2022-08-26T05:28:06.151Z,9.20
2022-08-26T05:30:38.929Z,7.70
2022-08-26T05:33:11.992Z,7.30
2022-08-26T05:35:45.442Z,6.00
2022-08-26T05:38:20.270Z,6.40
2022-08-26T05:40:53.288Z,5.90
2022-08-26T05:43:25.507Z,6.20
2022-08-26T05:45:58.374Z,5.60
2022-08-26T05:48:31.139Z,5.60
2022-08-26T05:51:07.076Z,5.70
2022-08-26T05:53:43.782Z,5.90
2022-08-26T05:56:27.904Z,6.20
2022-08-26T05:59:02.410Z,5.80
2022-08-26T06:01:36.689Z,5.50
2022-08-26T06:04:09.769Z,6.10
2022-08-26T06:06:43.185Z,5.70
2022-08-26T06:09:17.473Z,5.90
2022-08-26T06:11:50.533Z,5.60
2022-08-26T06:14:23.163Z,6.30
2022-08-26T06:16:55.347Z,5.90
2022-08-26T06:19:33.087Z,5.70
2022-08-26T06:22:26.871Z,5.80
2022-08-26T06:25:16.342Z,4.70
2022-08-26T06:27:48.998Z,5.20
2022-08-26T06:30:22.703Z,5.60
2022-08-26T06:32:57.721Z,5.40
2022-08-26T06:35:30.087Z,6.00
2022-08-26T06:38:03.419Z,6.10
2022-08-26T06:40:36.687Z,5.40
2022-08-26T06:43:10.401Z,5.70
2022-08-26T06:45:44.864Z,5.40
2022-08-26T06:48:19.316Z,5.50
2022-08-26T06:50:51.410Z,5.70
2022-08-26T06:53:23.634Z,4.70
2022-08-26T06:55:55.663Z,5.40
2022-08-26T06:58:28.986Z,5.60
2022-08-26T07:01:09.117Z,5.80
2022-08-26T07:03:43.696Z,5.70
2022-08-26T07:06:19.825Z,5.20
2022-08-26T07:08:53.746Z,5.70
2022-08-26T07:11:26.086Z,5.60
2022-08-26T07:14:00.261Z,5.60
2022-08-26T07:16:33.139Z,6.10
2022-08-26T07:19:10.937Z,5.30
2022-08-26T07:21:44.199Z,5.50
2022-08-26T07:24:16.352Z,5.30
2022-08-26T07:26:48.615Z,5.90
2022-08-26T07:29:24.437Z,5.40
2022-08-26T07:31:58.444Z,5.80
2022-08-26T07:34:32.263Z,5.80
2022-08-26T07:37:06.336Z,5.30
2022-08-26T07:39:42.068Z,5.40
2022-08-26T07:42:19.753Z,4.90
2022-08-26T07:44:51.791Z,5.60
2022-08-26T07:47:25.781Z,6.30
2022-08-26T07:50:00.737Z,5.10
2022-08-26T07:52:33.783Z,5.30
2022-08-26T07:55:08.720Z,5.40
2022-08-26T07:57:40.947Z,4.90
2022-08-26T08:00:17.676Z,4.90
2022-08-26T08:02:49.807Z,4.70
2022-08-26T08:05:33.358Z,5.00
2022-08-26T08:08:26.329Z,5.10
2022-08-26T08:11:00.479Z,4.60
2022-08-26T08:13:32.796Z,4.70
2022-08-26T08:16:07.066Z,4.50
2022-08-26T08:18:45.064Z,4.40
2022-08-26T08:21:21.217Z,5.00
2022-08-26T08:23:55.450Z,5.00
2022-08-26T08:26:29.194Z,4.60
2022-08-26T08:29:01.262Z,4.30
2022-08-26T08:34:29.851Z,4.30
2022-08-26T08:37:01.931Z,4.30
2022-08-26T08:39:35.755Z,4.30
2022-08-26T08:42:38.004Z,4.40
2022-08-26T08:45:15.503Z,4.50
2022-08-26T08:47:54.721Z,4.60
2022-08-26T08:50:31.087Z,4.10
2022-08-26T08:53:13.763Z,4.50
2022-08-26T08:55:59.546Z,4.10
2022-08-26T08:58:43.756Z,4.40
2022-08-26T09:01:26.038Z,4.30
2022-08-26T09:04:19.336Z,4.70
2022-08-26T09:09:36.502Z,4.70
2022-08-26T09:12:12.849Z,4.70
2022-08-26T09:14:46.530Z,4.10
2022-08-26T09:17:33.703Z,4.80
2022-08-26T09:20:13.454Z,4.80
2022-08-26T09:22:45.620Z,4.90
2022-08-26T09:25:18.637Z,4.50
2022-08-26T09:27:52.889Z,4.60
2022-08-26T09:30:28.787Z,5.20
2022-08-26T09:33:10.170Z,4.60
2022-08-26T09:35:47.509Z,4.80
2022-08-26T09:38:29.356Z,4.60
2022-08-26T09:41:05.117Z,5.10
2022-08-26T09:43:37.632Z,4.90
2022-08-26T09:46:19.695Z,5.00
2022-08-26T09:48:53.191Z,4.90
2022-08-26T09:51:35.577Z,4.60
2022-08-26T09:54:08.249Z,5.20
2022-08-26T09:56:41.282Z,4.70
2022-08-26T09:59:14.936Z,4.40
2022-08-26T10:01:51.207Z,4.50
2022-08-26T10:04:27.268Z,4.60
2022-08-26T10:07:02.043Z,4.00
2022-08-26T10:09:38.865Z,4.20
2022-08-26T10:12:14.620Z,4.60
2022-08-26T10:14:52.404Z,4.60
2022-08-26T10:17:31.709Z,4.50
2022-08-26T10:20:23.169Z,4.80
2022-08-26T10:23:00.586Z,4.30
2022-08-26T10:25:39.253Z,4.80
2022-08-26T10:28:23.835Z,4.90
2022-08-26T10:31:01.885Z,4.60
2022-08-26T10:33:34.258Z,4.50
2022-08-26T10:36:39.343Z,4.60
2022-08-26T10:39:21.277Z,4.70
2022-08-26T10:41:58.290Z,4.90
2022-08-26T10:44:35.511Z,5.20
2022-08-26T10:47:16.850Z,4.30
2022-08-26T10:49:50.643Z,4.80
2022-08-26T10:52:29.508Z,4.60
2022-08-26T10:55:12.161Z,5.00
2022-08-26T10:57:52.658Z,4.40
2022-08-26T11:00:46.951Z,5.00
2022-08-26T11:03:34.537Z,4.90
2022-08-26T11:06:28.269Z,4.30
2022-08-26T11:09:03.201Z,4.40
2022-08-26T11:11:53.010Z,5.00
2022-08-26T11:14:46.226Z,4.60
2022-08-26T11:17:57.533Z,4.80
2022-08-26T11:20:41.826Z,4.90
2022-08-26T11:23:50.346Z,5.70
2022-08-26T11:26:56.004Z,4.90
2022-08-26T11:30:03.330Z,5.50
2022-08-26T11:32:50.623Z,5.50
2022-08-26T11:35:52.337Z,5.40
2022-08-26T11:38:30.636Z,5.70
2022-08-26T11:41:13.305Z,5.60
2022-08-26T11:43:47.607Z,5.10
2022-08-26T11:46:28.747Z,5.30
2022-08-26T11:49:06.589Z,5.00
2022-08-26T11:51:40.573Z,4.80
2022-08-26T11:54:16.342Z,5.10
2022-08-26T11:56:51.043Z,4.60
2022-08-26T12:02:19.182Z,5.20
2022-08-26T12:04:53.051Z,4.90
2022-08-26T12:07:29.089Z,4.90
2022-08-26T12:10:05.274Z,4.60
2022-08-26T12:12:40.463Z,5.20
2022-08-26T12:15:18.833Z,5.10
2022-08-26T12:17:54.615Z,4.80
2022-08-26T12:20:48.356Z,5.50
2022-08-26T12:23:44.381Z,5.40
2022-08-26T12:26:23.938Z,5.60
2022-08-26T12:28:59.265Z,4.60
2022-08-26T12:31:37.008Z,5.30
2022-08-26T12:34:17.902Z,4.60
2022-08-26T12:36:53.684Z,4.50
2022-08-26T12:39:31.381Z,4.70
2022-08-26T12:42:08.038Z,4.70
2022-08-26T12:44:54.171Z,4.70
2022-08-26T12:47:42.245Z,4.50
2022-08-26T12:50:24.941Z,4.60
2022-08-26T12:53:02.113Z,4.40
2022-08-26T12:55:43.833Z,4.60
2022-08-26T12:58:26.027Z,4.70
2022-08-26T13:01:19.128Z,4.50
2022-08-26T13:03:52.102Z,4.50
2022-08-26T13:06:32.804Z,4.50
2022-08-26T13:09:26.349Z,5.00
2022-08-26T13:12:02.305Z,4.80
2022-08-26T13:17:05.472Z,4.70
2022-08-26T13:19:37.567Z,5.10
2022-08-26T13:22:12.817Z,5.10
2022-08-26T13:24:45.949Z,5.00
2022-08-26T13:27:20.833Z,4.80
2022-08-26T13:29:53.283Z,5.00
2022-08-26T13:32:27.608Z,4.90
2022-08-26T13:35:00.378Z,5.20
2022-08-26T13:37:38.066Z,5.10
2022-08-26T13:40:13.293Z,5.50
2022-08-26T13:42:49.919Z,6.00
2022-08-26T13:45:22.442Z,5.70
2022-08-26T13:47:54.541Z,6.20
2022-08-26T13:50:26.990Z,6.00
2022-08-26T13:52:59.354Z,5.80
2022-08-26T13:55:31.747Z,6.00
2022-08-26T13:58:03.909Z,5.90
2022-08-26T14:00:38.068Z,6.50
2022-08-26T14:03:13.414Z,5.90
2022-08-26T14:05:45.808Z,6.50
2022-08-26T14:08:18.208Z,6.60
2022-08-26T14:10:50.793Z,6.70
2022-08-26T14:13:23.109Z,6.10
2022-08-26T14:15:56.708Z,7.50
2022-08-26T14:18:36.332Z,6.70
2022-08-26T14:21:15.279Z,6.30
2022-08-26T14:23:47.784Z,6.30
2022-08-26T14:26:28.603Z,6.30
2022-08-26T14:29:04.153Z,6.70
2022-08-26T14:31:38.065Z,6.50
2022-08-26T14:34:10.894Z,6.50
2022-08-26T14:36:43.681Z,6.20
2022-08-26T14:39:16.776Z,6.00
2022-08-26T14:41:54.049Z,5.80
2022-08-26T14:44:29.963Z,5.90
2022-08-26T14:47:06.231Z,6.80
2022-08-26T14:49:39.360Z,6.60
2022-08-26T14:52:11.639Z,6.50
2022-08-26T14:54:43.777Z,6.50
2022-08-26T14:57:17.215Z,6.10
2022-08-26T14:59:50.639Z,6.40
2022-08-26T15:02:32.476Z,6.90
2022-08-26T15:05:08.638Z,6.50
2022-08-26T15:07:41.200Z,6.40
2022-08-26T15:10:15.804Z,6.60
2022-08-26T15:12:48.166Z,7.10
2022-08-26T15:15:21.078Z,6.60
2022-08-26T15:17:53.468Z,6.60
2022-08-26T15:20:25.677Z,7.10
2022-08-26T15:22:59.001Z,6.80
2022-08-26T15:25:38.167Z,7.10
2022-08-26T15:28:10.379Z,7.20
2022-08-26T15:30:43.298Z,6.40
2022-08-26T15:33:16.972Z,6.30
2022-08-26T15:35:49.237Z,6.60
2022-08-26T15:38:21.437Z,7.00
2022-08-26T15:40:53.566Z,7.00
2022-08-26T15:43:29.292Z,6.50
2022-08-26T15:46:01.812Z,6.90
2022-08-26T15:48:34.071Z,6.90
2022-08-26T15:51:07.441Z,7.30
2022-08-26T15:53:39.630Z,6.60
2022-08-26T15:56:11.808Z,6.80
2022-08-26T15:58:44.060Z,7.00
2022-08-26T16:01:18.208Z,6.60
2022-08-26T16:04:00.410Z,6.70
2022-08-26T16:06:34.956Z,6.00
2022-08-26T16:09:37.952Z,6.40
2022-08-26T16:12:11.062Z,6.40
2022-08-26T16:14:46.777Z,7.30
2022-08-26T16:17:19.929Z,6.60
2022-08-26T16:19:52.569Z,6.20
2022-08-26T16:22:25.648Z,6.30
2022-08-26T16:25:01.547Z,6.80
2022-08-26T16:27:33.856Z,6.50
2022-08-26T16:30:07.943Z,6.30
2022-08-26T16:32:40.196Z,6.50
2022-08-26T16:35:12.816Z,5.60
2022-08-26T16:37:46.100Z,6.00
2022-08-26T16:40:19.440Z,5.90
2022-08-26T16:42:51.937Z,5.90
2022-08-26T16:45:25.615Z,5.70
2022-08-26T16:47:59.418Z,6.00
2022-08-26T16:50:32.070Z,5.90
2022-08-26T16:53:04.854Z,5.60
2022-08-26T16:55:38.251Z,5.50
2022-08-26T16:58:10.512Z,5.40
2022-08-26T17:00:43.557Z,5.80
2022-08-26T17:03:16.156Z,5.70
2022-08-26T17:05:48.777Z,5.10
2022-08-26T17:08:27.442Z,5.50
2022-08-26T17:11:03.676Z,5.50
2022-08-26T17:13:36.861Z,5.30
2022-08-26T17:16:11.796Z,5.20
2022-08-26T17:18:44.871Z,5.70
2022-08-26T17:21:17.744Z,5.70
2022-08-26T17:23:50.423Z,5.20
2022-08-26T17:26:23.450Z,5.60
2022-08-26T17:28:57.228Z,6.00
2022-08-26T17:31:29.583Z,5.70
2022-08-26T17:34:04.205Z,5.50
2022-08-26T17:36:36.326Z,6.60
2022-08-26T17:39:08.672Z,6.30
2022-08-26T17:41:41.483Z,5.10
2022-08-26T17:44:13.752Z,6.20
2022-08-26T17:46:45.884Z,5.50
2022-08-26T17:49:18.061Z,4.70
2022-08-26T17:51:50.333Z,5.00
2022-08-26T17:54:22.530Z,5.20
2022-08-26T17:56:55.133Z,5.90
2022-08-26T17:59:30.524Z,5.60
2022-08-26T18:02:03.047Z,5.10
2022-08-26T18:04:35.301Z,6.00
2022-08-26T18:07:10.605Z,5.70
2022-08-26T18:09:46.320Z,5.70
2022-08-26T18:12:18.359Z,5.30
2022-08-26T18:14:50.553Z,5.50
2022-08-26T18:17:22.995Z,6.00
2022-08-26T18:19:55.136Z,6.10
2022-08-26T18:22:27.870Z,8.00
2022-08-26T18:24:59.881Z,6.70
2022-08-26T18:27:31.936Z,5.80
2022-08-26T18:30:04.625Z,5.80
2022-08-26T18:32:36.789Z,6.00
2022-08-26T18:35:21.200Z,5.70
2022-08-26T18:38:01.432Z,5.60
2022-08-26T18:40:51.345Z,5.60
2022-08-26T18:43:26.351Z,6.30
2022-08-26T18:46:06.795Z,5.70
2022-08-26T18:48:40.168Z,5.20
2022-08-26T18:51:19.408Z,5.40
2022-08-26T18:53:54.141Z,5.40
2022-08-26T18:56:26.598Z,5.20
2022-08-26T18:59:03.892Z,5.00
2022-08-26T19:01:37.723Z,5.40
2022-08-26T19:04:15.686Z,5.60
2022-08-26T19:06:50.843Z,5.50
2022-08-26T19:09:27.414Z,6.00
2022-08-26T19:12:07.098Z,6.00
2022-08-26T19:14:41.862Z,5.60
2022-08-26T19:17:14.427Z,6.30
2022-08-26T19:19:55.389Z,6.00
2022-08-26T19:22:40.665Z,5.80
2022-08-26T19:25:13.905Z,6.30
2022-08-26T19:27:46.211Z,7.30
2022-08-26T19:30:20.087Z,6.00
2022-08-26T19:32:52.387Z,6.40
2022-08-26T19:35:24.409Z,6.10
2022-08-26T19:37:59.034Z,5.70
2022-08-26T19:40:32.008Z,5.70
2022-08-26T19:43:04.903Z,5.90
2022-08-26T19:45:38.937Z,6.30
2022-08-26T19:48:15.887Z,5.50
2022-08-26T19:50:48.078Z,6.00
2022-08-26T19:53:20.248Z,6.00
2022-08-26T19:55:52.526Z,5.90
2022-08-26T19:58:24.744Z,5.50
2022-08-26T20:00:57.058Z,6.30
2022-08-26T20:03:29.418Z,6.00
2022-08-26T20:06:01.482Z,6.00
2022-08-26T20:08:34.022Z,6.10
2022-08-26T20:11:11.304Z,6.60
2022-08-26T20:13:44.431Z,5.90
2022-08-26T20:16:17.712Z,6.40
2022-08-26T20:19:07.679Z,7.00
2022-08-26T20:21:46.832Z,9.20
2022-08-26T20:24:21.310Z,12.20
2022-08-26T20:26:53.579Z,6.90
2022-08-26T20:29:26.107Z,7.00
2022-08-26T20:31:58.926Z,6.50
2022-08-26T20:34:35.675Z,6.80
2022-08-26T20:37:09.320Z,7.30
2022-08-26T20:39:42.445Z,7.90
2022-08-26T20:42:20.064Z,10.80
2022-08-26T20:44:56.143Z,10.50
2022-08-26T20:47:31.424Z,7.40
2022-08-26T20:50:03.784Z,7.10
2022-08-26T20:52:36.195Z,7.00
2022-08-26T20:55:10.154Z,6.80
2022-08-26T20:57:46.111Z,6.80
2022-08-26T21:00:26.595Z,6.90
2022-08-26T21:03:07.789Z,8.60
2022-08-26T21:05:40.038Z,10.50
2022-08-26T21:08:13.427Z,7.80
2022-08-26T21:10:46.287Z,7.90
2022-08-26T21:13:21.102Z,8.30
2022-08-26T21:15:56.533Z,8.20
2022-08-26T21:18:29.265Z,8.70
2022-08-26T21:21:04.275Z,9.20
2022-08-26T21:23:37.670Z,8.30
2022-08-26T21:26:13.476Z,8.40
2022-08-26T21:28:46.796Z,8.20
2022-08-26T21:31:23.905Z,8.10
2022-08-26T21:33:56.223Z,8.10
2022-08-26T21:36:28.555Z,8.50
2022-08-26T21:39:01.580Z,7.70
2022-08-26T21:41:33.833Z,8.00
2022-08-26T21:44:06.872Z,8.20
2022-08-26T21:46:39.363Z,7.60
2022-08-26T21:49:13.703Z,8.10
2022-08-26T21:51:47.987Z,8.20
2022-08-26T21:54:20.221Z,7.90
2022-08-26T21:56:52.467Z,8.20
2022-08-26T21:59:24.790Z,8.50
2022-08-26T22:01:57.393Z,8.50
2022-08-26T22:04:30.374Z,9.10
2022-08-26T22:07:03.579Z,8.50
2022-08-26T22:09:35.969Z,8.20
2022-08-26T22:12:13.179Z,7.90
2022-08-26T22:14:45.721Z,8.20
2022-08-26T22:17:18.012Z,8.30
2022-08-26T22:19:51.259Z,8.30
2022-08-26T22:22:24.357Z,8.70
2022-08-26T22:24:56.852Z,9.30
2022-08-26T22:27:29.139Z,9.00
2022-08-26T22:30:01.386Z,9.30
2022-08-26T22:32:34.817Z,9.00
2022-08-26T22:35:11.326Z,9.60
2022-08-26T22:38:00.879Z,9.80
2022-08-26T22:40:34.124Z,9.00
2022-08-26T22:43:06.944Z,9.20
2022-08-26T22:45:44.278Z,8.30
2022-08-26T22:48:19.257Z,8.90
2022-08-26T22:50:58.292Z,9.00
2022-08-26T22:53:35.214Z,9.40
2022-08-26T22:56:08.785Z,9.70
2022-08-26T22:58:41.672Z,9.30
2022-08-26T23:01:14.246Z,9.00
2022-08-26T23:03:46.966Z,9.40
2022-08-26T23:06:19.262Z,8.80
2022-08-26T23:08:52.201Z,8.60
2022-08-26T23:11:24.471Z,9.70
2022-08-26T23:13:56.644Z,11.10
2022-08-26T23:16:29.442Z,9.40
2022-08-26T23:19:09.266Z,8.50
2022-08-26T23:21:42.086Z,8.40
2022-08-26T23:24:14.804Z,8.90
2022-08-26T23:26:47.804Z,8.90
2022-08-26T23:29:20.060Z,8.50
2022-08-26T23:31:52.260Z,8.50
2022-08-26T23:34:41.848Z,8.50
2022-08-26T23:37:14.694Z,11.00
2022-08-26T23:39:47.551Z,8.90
2022-08-26T23:42:19.986Z,8.90
2022-08-26T23:44:52.781Z,8.80
2022-08-26T23:47:25.472Z,8.80
2022-08-26T23:49:57.812Z,9.00
2022-08-26T23:52:47.560Z,9.00
2022-08-26T23:55:20.585Z,10.10
2022-08-26T23:57:52.824Z,9.50
